createdAt,value
2023-04-10T00:15:17.189Z,19.0
2023-04-10T00:35:17.169Z,18.9
2023-04-10T00:55:17.148Z,18.9
2023-04-10T01:15:17.110Z,18.9
2023-04-10T01:35:17.097Z,18.8
2023-04-10T01:55:17.091Z,18.8
2023-04-10T02:15:17.064Z,18.8
2023-04-10T02:35:17.048Z,18.7
2023-04-10T02:55:16.996Z,18.7
2023-04-10T03:15:16.970Z,18.8
2023-04-10T03:35:17.023Z,19.0
2023-04-10T03:55:16.937Z,19.2
2023-04-10T04:15:16.902Z,19.4
2023-04-10T04:35:16.875Z,19.5
2023-04-10T04:55:16.849Z,19.6
2023-04-10T05:15:16.837Z,19.6
2023-04-10T05:35:16.805Z,19.7
2023-04-10T05:55:16.790Z,19.7
2023-04-10T06:15:16.762Z,19.8
2023-04-10T06:35:16.763Z,19.8
2023-04-10T06:55:16.720Z,19.8
2023-04-10T07:15:16.685Z,19.8
2023-04-10T07:55:16.604Z,19.8
2023-04-10T08:35:16.743Z,19.8
2023-04-10T08:55:16.762Z,19.9
2023-04-10T09:15:16.660Z,20.0
2023-04-10T09:35:16.616Z,19.8
2023-04-10T09:55:16.480Z,19.8
2023-04-10T10:15:16.441Z,19.8
2023-04-10T10:55:16.386Z,19.6
2023-04-10T11:15:16.523Z,19.6
2023-04-10T11:35:16.476Z,19.5
2023-04-10T11:55:16.442Z,19.5
2023-04-10T12:15:16.476Z,19.4
2023-04-10T12:35:16.447Z,19.4
2023-04-10T12:55:16.449Z,19.3
2023-04-10T13:15:16.376Z,19.3
2023-04-10T13:35:16.296Z,19.3
2023-04-10T13:55:16.196Z,19.3
2023-04-10T14:15:16.130Z,19.2
2023-04-10T14:35:16.126Z,19.2
2023-04-10T14:55:16.108Z,19.2
2023-04-10T15:15:16.174Z,19.2
2023-04-10T15:35:16.065Z,19.2
2023-04-10T15:55:16.085Z,19.3
2023-04-10T16:15:16.188Z,19.3
2023-04-10T16:35:15.945Z,19.5
2023-04-10T16:55:15.946Z,19.5
2023-04-10T17:15:15.926Z,19.5
2023-04-10T17:35:15.927Z,19.5
2023-04-10T17:55:15.902Z,19.5
2023-04-10T18:15:15.853Z,19.6
2023-04-10T18:35:15.817Z,19.6
2023-04-10T18:55:15.821Z,19.5
2023-04-10T19:15:15.837Z,19.5
2023-04-10T19:35:15.843Z,19.5
2023-04-10T19:55:15.694Z,19.4
2023-04-10T20:15:15.680Z,19.4
2023-04-10T20:35:15.643Z,19.3
2023-04-10T20:55:15.681Z,19.3
2023-04-10T21:15:15.628Z,19.2
2023-04-10T21:35:15.582Z,19.2
2023-04-10T21:55:15.565Z,19.2
2023-04-10T22:15:15.538Z,19.1
2023-04-10T22:35:15.508Z,19.1
2023-04-10T22:55:15.483Z,19.1
2023-04-10T23:15:15.460Z,19.0
2023-04-10T23:35:15.437Z,19.0
2023-04-10T23:55:15.395Z,19.0
